Oxnard Airport Oxnard US
ICAO: KOXR
IATA: OXR
Category: Medium
Scheduled Services: No

Elevation: 45 ft
TransAlt. 18000 ft.

Airport Communications:
PT MUGU APP/DEP:124.7
ATIS:118.05
CTAF:134.95
GND:121.9
TWR:134.95

KOXR Zoom In..

Runways:

(A) RW 07 length 5953 ft width 100 ft
---- / hdg 76

(B) RW 25 length 5953 ft width 100 ft
ILS 108.70 / hdg 256

Location; KOXR
Day. 25 / Time. 09.51 Zulu
* Altimeter: 30.04
* Temperature: 12° c. 53.6°f.
* Wind from: 300° Speed 03 kn.
Dewpoint: 10° c.
Visibility: 8 Statute Miles.
Clouds: Overcast 800 ft.

KOXR 250951Z AUTO 30003KT 8SM OVC008 12/10 A3004 RMK AO2 SLP174 T01170100


Wind From 300°
Speed 03 kn.

  YouTube Music Video
 
jpsmedia.com for Web Design  worldairports.se 2018   terms of use